createdAt,value
2022-08-17T00:00:16.575Z,0.0
2022-08-17T00:05:08.005Z,0.0
2022-08-17T00:10:07.750Z,0.0
2022-08-17T00:15:10.466Z,0.0
2022-08-17T00:20:08.511Z,0.0
2022-08-17T00:25:08.223Z,0.0
2022-08-17T00:30:08.003Z,0.0
2022-08-17T00:35:07.680Z,0.0
2022-08-17T00:40:08.542Z,0.0
2022-08-17T00:45:08.311Z,0.0
2022-08-17T00:50:08.052Z,0.0
2022-08-17T00:55:07.799Z,0.0
2022-08-17T01:00:08.504Z,0.0
2022-08-17T01:05:08.272Z,0.0
2022-08-17T01:10:08.026Z,0.0
2022-08-17T01:15:08.465Z,0.0
2022-08-17T01:20:08.171Z,0.0
2022-08-17T01:25:07.874Z,0.0
2022-08-17T01:30:57.851Z,0.0
2022-08-17T01:35:08.058Z,0.0
2022-08-17T01:40:07.773Z,0.0
2022-08-17T01:45:08.561Z,0.0
2022-08-17T01:50:08.271Z,0.0
2022-08-17T01:55:07.971Z,0.0
2022-08-17T02:00:07.670Z,0.0
2022-08-17T02:05:08.363Z,0.0
2022-08-17T02:10:20.001Z,0.0
2022-08-17T02:15:08.090Z,0.0
2022-08-17T02:20:07.854Z,0.0
2022-08-17T02:25:08.571Z,0.0
2022-08-17T02:31:00.718Z,0.0
2022-08-17T02:35:08.062Z,0.0
2022-08-17T02:40:07.820Z,0.0
2022-08-17T02:45:08.639Z,0.0
2022-08-17T02:50:08.362Z,0.0
2022-08-17T02:55:08.100Z,0.0
2022-08-17T03:00:07.792Z,0.0
2022-08-17T03:05:08.507Z,0.0
2022-08-17T03:10:08.229Z,0.0
2022-08-17T03:15:07.906Z,0.0
2022-08-17T03:20:08.596Z,0.0
2022-08-17T03:25:10.638Z,0.0
2022-08-17T03:30:08.561Z,0.0
2022-08-17T03:35:08.282Z,0.0
2022-08-17T03:40:08.080Z,0.0
2022-08-17T03:45:07.804Z,0.0
2022-08-17T03:50:18.496Z,0.0
2022-08-17T03:55:08.155Z,0.0
2022-08-17T04:00:07.856Z,0.0
2022-08-17T04:05:02.647Z,0.0
2022-08-17T04:10:02.555Z,0.0
2022-08-17T04:15:02.525Z,0.0
2022-08-17T04:20:02.331Z,0.0
2022-08-17T04:25:02.166Z,0.0
2022-08-17T04:30:02.317Z,0.0
2022-08-17T04:35:02.149Z,0.0
2022-08-17T04:40:04.068Z,0.0
2022-08-17T04:45:02.293Z,0.0
2022-08-17T04:50:02.159Z,0.0
2022-08-17T04:55:01.976Z,0.0
2022-08-17T05:00:01.856Z,0.0
2022-08-17T05:05:01.915Z,0.0
2022-08-17T05:10:02.884Z,0.0
2022-08-17T05:15:02.871Z,0.0
2022-08-17T05:20:02.887Z,0.0
2022-08-17T05:25:02.869Z,0.0
2022-08-17T05:30:02.785Z,0.0
2022-08-17T05:35:02.756Z,0.0
2022-08-17T05:40:02.740Z,0.0
2022-08-17T05:45:02.735Z,0.0
2022-08-17T05:50:02.563Z,0.0
2022-08-17T05:55:12.430Z,0.0
2022-08-17T06:00:02.210Z,0.0
2022-08-17T06:05:02.044Z,0.0
2022-08-17T06:10:01.874Z,0.0
2022-08-17T06:15:02.715Z,0.0
2022-08-17T06:20:02.649Z,0.0
2022-08-17T06:25:04.190Z,0.0
2022-08-17T06:30:08.390Z,0.0
2022-08-17T06:35:02.268Z,0.0
2022-08-17T06:40:02.207Z,0.0
2022-08-17T06:45:02.159Z,0.0
2022-08-17T06:50:02.046Z,0.0
2022-08-17T06:55:01.952Z,0.0
2022-08-17T07:00:01.757Z,0.0
2022-08-17T07:05:02.630Z,0.0
2022-08-17T07:10:02.486Z,0.0
2022-08-17T07:15:12.341Z,0.0
2022-08-17T07:20:02.389Z,0.0
2022-08-17T07:25:02.345Z,0.0
2022-08-17T07:30:05.641Z,0.0
2022-08-17T07:35:02.030Z,0.0
2022-08-17T07:40:15.314Z,0.0
2022-08-17T07:45:02.420Z,0.0
2022-08-17T07:50:02.362Z,0.0
2022-08-17T07:55:02.402Z,0.0
2022-08-17T08:00:03.178Z,0.0
2022-08-17T08:05:02.569Z,0.0
2022-08-17T08:10:02.488Z,0.0
2022-08-17T08:15:02.445Z,0.0
2022-08-17T08:20:51.432Z,0.0
2022-08-17T08:25:02.559Z,0.0
2022-08-17T08:30:03.015Z,0.0
2022-08-17T08:35:05.617Z,0.0
2022-08-17T08:40:12.607Z,0.0
2022-08-17T08:45:04.557Z,0.0
2022-08-17T08:50:04.380Z,0.0
2022-08-17T08:55:02.058Z,0.0
2022-08-17T09:00:01.991Z,0.0
2022-08-17T09:05:15.011Z,0.0
2022-08-17T09:10:02.567Z,0.0
2022-08-17T09:15:02.520Z,0.0
2022-08-17T09:20:02.341Z,0.0
2022-08-17T09:25:02.163Z,0.0
2022-08-17T09:30:02.039Z,0.0
2022-08-17T09:35:01.999Z,0.0
2022-08-17T09:40:02.343Z,0.0
2022-08-17T09:45:04.170Z,0.0
2022-08-17T09:50:02.042Z,0.0
2022-08-17T09:55:01.914Z,0.0
2022-08-17T10:00:12.680Z,0.0
2022-08-17T10:05:02.616Z,0.0
2022-08-17T10:10:02.583Z,0.0
2022-08-17T10:15:07.919Z,0.0
2022-08-17T10:20:02.192Z,0.0
2022-08-17T10:25:22.236Z,0.0
2022-08-17T10:30:02.692Z,0.0
2022-08-17T10:35:02.724Z,0.0
2022-08-17T10:40:02.838Z,0.0
2022-08-17T10:45:02.851Z,0.0
2022-08-17T10:50:02.810Z,0.0
2022-08-17T10:55:02.801Z,0.0
2022-08-17T11:00:10.229Z,1.5
2022-08-17T11:05:03.269Z,1.5
2022-08-17T11:10:02.368Z,2.1
2022-08-17T11:15:02.171Z,1.1
2022-08-17T11:20:02.027Z,1.1
2022-08-17T11:25:01.874Z,0.0
2022-08-17T11:30:02.999Z,1.5
2022-08-17T11:35:01.872Z,0.0
2022-08-17T11:40:02.763Z,1.5
2022-08-17T11:45:02.571Z,1.9
2022-08-17T11:50:02.368Z,0.0
2022-08-17T11:55:24.163Z,0.0
2022-08-17T12:00:02.583Z,0.0
2022-08-17T12:05:02.404Z,0.0
2022-08-17T12:10:02.204Z,0.0
2022-08-17T12:15:11.056Z,1.2
2022-08-17T12:20:03.030Z,1.3
2022-08-17T12:25:12.363Z,1.4
2022-08-17T12:30:02.127Z,1.6
2022-08-17T12:35:01.872Z,1.7
2022-08-17T12:40:02.634Z,1.1
2022-08-17T12:45:02.481Z,1.0
2022-08-17T12:50:02.386Z,1.7
2022-08-17T12:55:02.347Z,2.1
2022-08-17T13:00:02.277Z,1.9
2022-08-17T13:05:02.251Z,2.0
2022-08-17T13:10:02.140Z,1.6
2022-08-17T13:15:02.071Z,2.2
2022-08-17T13:20:01.995Z,1.1
2022-08-17T13:25:01.921Z,0.0
2022-08-17T13:30:02.900Z,0.0
2022-08-17T13:35:15.406Z,0.0
2022-08-17T13:40:02.411Z,0.0
2022-08-17T13:45:02.648Z,0.0
2022-08-17T13:50:02.600Z,0.0
2022-08-17T13:55:02.563Z,0.0
2022-08-17T14:00:02.361Z,0.0
2022-08-17T14:05:02.162Z,0.0
2022-08-17T14:10:02.513Z,0.0
2022-08-17T14:15:02.412Z,0.0
2022-08-17T14:20:02.186Z,0.0
2022-08-17T14:25:02.053Z,0.0
2022-08-17T14:30:01.958Z,0.0
2022-08-17T14:35:01.959Z,1.4
2022-08-17T14:40:01.909Z,0.0
2022-08-17T14:45:05.181Z,0.0
2022-08-17T14:50:01.945Z,0.0
2022-08-17T14:55:02.821Z,0.0
2022-08-17T15:00:02.639Z,0.0
2022-08-17T15:05:02.484Z,0.0
2022-08-17T15:10:02.765Z,1.4
2022-08-17T15:15:01.715Z,1.5
2022-08-17T15:20:02.485Z,1.5
2022-08-17T15:25:02.330Z,0.0
2022-08-17T15:30:02.123Z,0.0
2022-08-17T15:35:01.958Z,0.0
2022-08-17T15:40:02.024Z,0.0
2022-08-17T15:45:01.938Z,1.2
2022-08-17T15:50:02.837Z,1.2
2022-08-17T15:55:02.657Z,1.1
2022-08-17T16:00:02.599Z,1.1
2022-08-17T16:05:02.602Z,1.1
2022-08-17T16:10:02.530Z,1.1
2022-08-17T16:15:02.482Z,1.1
2022-08-17T16:20:02.392Z,1.1
2022-08-17T16:25:02.227Z,0.0
2022-08-17T16:30:02.136Z,0.0
2022-08-17T16:35:02.118Z,0.0
2022-08-17T16:40:01.957Z,0.0
2022-08-17T16:45:01.829Z,0.0
2022-08-17T16:50:02.697Z,0.0
2022-08-17T16:55:02.597Z,0.0
2022-08-17T17:00:02.326Z,0.0
2022-08-17T17:05:12.142Z,0.0
2022-08-17T17:10:01.938Z,0.0
2022-08-17T17:15:02.793Z,0.0
2022-08-17T17:20:02.685Z,1.0
2022-08-17T17:25:02.475Z,1.0
2022-08-17T17:30:02.341Z,0.0
2022-08-17T17:35:02.149Z,0.0
2022-08-17T17:40:02.067Z,0.0
2022-08-17T17:45:11.874Z,0.0
2022-08-17T17:50:02.861Z,0.0
2022-08-17T17:55:02.663Z,0.0
2022-08-17T18:00:02.523Z,0.0
2022-08-17T18:05:02.400Z,0.0
2022-08-17T18:10:02.158Z,1.0
2022-08-17T18:15:12.591Z,1.0
2022-08-17T18:20:02.401Z,0.0
2022-08-17T18:25:02.203Z,0.0
2022-08-17T18:30:05.855Z,0.0
2022-08-17T18:35:01.874Z,0.0
2022-08-17T18:40:02.898Z,0.0
2022-08-17T18:45:02.916Z,0.0
2022-08-17T18:50:02.246Z,0.0
2022-08-17T18:55:12.173Z,0.0
2022-08-17T19:00:02.212Z,0.0
2022-08-17T19:05:02.087Z,0.0
2022-08-17T19:10:02.001Z,0.0
2022-08-17T19:15:01.848Z,0.0
2022-08-17T19:20:02.646Z,0.0
2022-08-17T19:25:03.736Z,0.0
2022-08-17T19:30:07.563Z,1.1
2022-08-17T19:35:02.156Z,1.1
2022-08-17T19:40:02.111Z,0.0
2022-08-17T19:45:02.031Z,0.0
2022-08-17T19:50:01.867Z,0.0
2022-08-17T19:55:02.678Z,0.0
2022-08-17T20:00:02.520Z,0.0
2022-08-17T20:05:02.372Z,0.0
2022-08-17T20:10:02.180Z,0.0
2022-08-17T20:15:11.996Z,0.0
2022-08-17T20:20:01.791Z,0.0
2022-08-17T20:25:02.576Z,0.0
2022-08-17T20:30:02.376Z,0.0
2022-08-17T20:35:15.016Z,0.0
2022-08-17T20:40:07.876Z,0.0
2022-08-17T20:45:08.597Z,0.0
2022-08-17T20:50:08.302Z,1.1
2022-08-17T20:55:08.035Z,1.1
2022-08-17T21:00:15.865Z,0.0
2022-08-17T21:05:08.569Z,0.0
2022-08-17T21:10:08.554Z,0.0
2022-08-17T21:15:08.268Z,0.0
2022-08-17T21:20:11.513Z,0.0
2022-08-17T21:25:07.963Z,0.0
2022-08-17T21:30:10.263Z,0.0
2022-08-17T21:35:08.570Z,0.0
2022-08-17T21:40:08.349Z,0.0
2022-08-17T21:45:08.133Z,0.0
2022-08-17T21:50:07.867Z,0.0
2022-08-17T21:55:08.580Z,0.0
2022-08-17T22:00:08.310Z,0.0
2022-08-17T22:05:08.005Z,0.0
2022-08-17T22:10:07.713Z,0.0
2022-08-17T22:15:08.421Z,0.0
2022-08-17T22:20:08.093Z,0.0
2022-08-17T22:25:07.790Z,0.0
2022-08-17T22:30:08.513Z,0.0
2022-08-17T22:35:18.185Z,0.0
2022-08-17T22:40:07.959Z,0.0
2022-08-17T22:45:07.644Z,0.0
2022-08-17T22:50:08.384Z,0.0
2022-08-17T22:55:09.303Z,0.0
2022-08-17T23:01:00.395Z,0.0
2022-08-17T23:05:08.145Z,0.0
2022-08-17T23:10:07.847Z,0.0
2022-08-17T23:15:07.724Z,0.0
2022-08-17T23:20:08.583Z,0.0
2022-08-17T23:25:08.296Z,0.0
2022-08-17T23:30:07.982Z,0.0
2022-08-17T23:35:07.916Z,0.0
2022-08-17T23:40:08.733Z,0.0
2022-08-17T23:45:08.492Z,0.0
2022-08-17T23:50:08.194Z,0.0
2022-08-17T23:55:07.966Z,0.0
